createdAt,value
2022-10-07T00:01:55.561Z,65.70
2022-10-07T00:06:59.054Z,65.80
2022-10-07T00:12:04.012Z,65.80
2022-10-07T00:17:07.640Z,66.20
2022-10-07T00:22:11.007Z,67.00
2022-10-07T00:27:16.068Z,67.10
2022-10-07T00:32:19.464Z,66.90
2022-10-07T00:37:22.778Z,66.60
2022-10-07T00:42:29.819Z,66.50
2022-10-07T00:47:35.538Z,66.30
2022-10-07T00:52:42.333Z,66.80
2022-10-07T00:57:49.978Z,67.00
2022-10-07T01:02:53.627Z,66.90
2022-10-07T01:07:59.429Z,67.20
2022-10-07T01:13:14.552Z,66.80
2022-10-07T01:18:22.870Z,67.30
2022-10-07T01:23:44.713Z,66.30
2022-10-07T01:28:52.869Z,66.20
2022-10-07T01:33:57.115Z,67.00
2022-10-07T01:39:04.530Z,67.50
2022-10-07T01:44:11.635Z,67.30
2022-10-07T01:49:15.217Z,67.30
2022-10-07T01:54:30.835Z,67.10
2022-10-07T01:59:53.129Z,66.50
2022-10-07T02:05:11.335Z,66.40
2022-10-07T02:10:22.527Z,68.10
2022-10-07T02:15:32.574Z,67.30
2022-10-07T02:20:38.879Z,67.10
2022-10-07T02:25:46.467Z,67.90
2022-10-07T02:30:55.693Z,68.70
2022-10-07T02:36:01.909Z,69.00
2022-10-07T02:41:11.377Z,68.80
2022-10-07T02:46:21.045Z,69.50
2022-10-07T02:51:29.410Z,68.40
2022-10-07T02:56:35.464Z,68.30
2022-10-07T03:01:45.459Z,68.10
2022-10-07T03:06:49.772Z,67.80
2022-10-07T03:11:53.254Z,67.70
2022-10-07T03:16:57.876Z,67.90
2022-10-07T03:22:02.420Z,68.40
2022-10-07T03:27:07.255Z,68.70
2022-10-07T03:32:12.464Z,68.80
2022-10-07T03:37:15.986Z,68.70
2022-10-07T03:42:19.575Z,68.50
2022-10-07T03:47:24.291Z,68.30
2022-10-07T03:52:27.744Z,68.30
2022-10-07T03:57:48.584Z,68.10
2022-10-07T04:02:53.311Z,69.00
2022-10-07T04:07:56.641Z,69.60
2022-10-07T04:12:59.905Z,69.60
2022-10-07T04:18:04.597Z,69.40
2022-10-07T04:23:08.020Z,69.00
2022-10-07T04:28:17.116Z,69.10
2022-10-07T04:33:24.415Z,68.90
2022-10-07T04:38:28.616Z,69.30
2022-10-07T04:43:34.041Z,69.50
2022-10-07T04:48:38.957Z,69.60
2022-10-07T04:53:42.261Z,69.60
2022-10-07T04:58:45.545Z,70.00
2022-10-07T05:03:50.253Z,70.00
2022-10-07T05:08:54.357Z,70.40
2022-10-07T05:13:58.387Z,70.70
2022-10-07T05:19:03.032Z,71.30
2022-10-07T05:24:06.668Z,71.40
2022-10-07T05:29:10.010Z,71.70
2022-10-07T05:34:15.526Z,71.40
2022-10-07T05:39:19.198Z,71.30
2022-10-07T05:44:22.526Z,71.60
2022-10-07T05:49:27.857Z,71.70
2022-10-07T05:54:31.398Z,71.50
2022-10-07T05:59:34.664Z,71.80
2022-10-07T06:04:39.304Z,71.40
2022-10-07T06:09:59.992Z,71.40
2022-10-07T06:15:03.514Z,71.50
2022-10-07T06:20:09.278Z,71.60
2022-10-07T06:25:12.599Z,71.40
2022-10-07T06:30:16.214Z,71.80
2022-10-07T06:35:21.070Z,74.00
2022-10-07T06:40:24.588Z,73.20
2022-10-07T06:45:28.228Z,73.60
2022-10-07T06:50:32.891Z,73.30
2022-10-07T06:55:37.743Z,73.10
2022-10-07T07:00:41.102Z,73.80
2022-10-07T07:05:47.079Z,74.20
2022-10-07T07:10:52.089Z,75.20
2022-10-07T07:15:56.681Z,74.80
2022-10-07T07:21:07.828Z,74.40
2022-10-07T07:26:11.198Z,74.90
2022-10-07T07:31:14.823Z,75.10
2022-10-07T07:36:22.414Z,77.20
2022-10-07T07:41:27.921Z,78.90
2022-10-07T07:46:36.230Z,78.20
2022-10-07T07:51:43.118Z,80.00
2022-10-07T07:56:46.426Z,80.00
2022-10-07T08:01:49.843Z,81.20
2022-10-07T08:06:55.590Z,81.40
2022-10-07T08:11:58.966Z,81.20
2022-10-07T08:17:02.497Z,80.60
2022-10-07T08:22:08.491Z,79.70
2022-10-07T08:27:11.787Z,79.30
2022-10-07T08:32:15.052Z,79.40
2022-10-07T08:37:20.986Z,80.10
2022-10-07T08:42:29.338Z,79.50
2022-10-07T08:47:38.859Z,79.30
2022-10-07T08:52:51.041Z,81.80
2022-10-07T08:58:11.768Z,80.40
2022-10-07T09:03:29.965Z,80.00
2022-10-07T09:08:42.553Z,80.10
2022-10-07T09:13:49.173Z,79.80
2022-10-07T09:18:56.097Z,79.00
2022-10-07T09:24:24.526Z,78.00
2022-10-07T09:29:30.965Z,77.50
2022-10-07T09:34:34.255Z,77.50
2022-10-07T09:39:39.502Z,77.00
2022-10-07T09:44:43.209Z,76.50
2022-10-07T09:49:51.484Z,75.90
2022-10-07T09:54:58.365Z,75.40
2022-10-07T10:00:22.456Z,75.30
2022-10-07T10:05:29.761Z,74.70
2022-10-07T10:10:35.869Z,74.70
2022-10-07T10:15:42.352Z,73.70
2022-10-07T10:20:46.538Z,73.00
2022-10-07T10:26:16.037Z,72.70
2022-10-07T10:31:25.625Z,72.90
2022-10-07T10:36:34.042Z,73.10
2022-10-07T10:41:45.325Z,72.10
2022-10-07T10:46:57.279Z,71.60
2022-10-07T10:52:20.074Z,70.90
2022-10-07T10:57:38.080Z,70.90
2022-10-07T11:03:00.659Z,69.90
2022-10-07T11:08:11.386Z,69.30
2022-10-07T11:13:29.727Z,69.30
2022-10-07T11:18:38.037Z,69.30
2022-10-07T11:23:50.271Z,68.10
2022-10-07T11:28:57.088Z,68.10
2022-10-07T11:34:16.275Z,68.10
2022-10-07T11:39:20.134Z,67.50
2022-10-07T11:44:34.303Z,66.90
2022-10-07T11:49:43.214Z,66.30
2022-10-07T11:54:53.625Z,65.60
2022-10-07T12:00:00.892Z,65.20
2022-10-07T12:05:05.196Z,63.90
2022-10-07T12:10:22.203Z,63.70
2022-10-07T12:15:31.096Z,63.80
2022-10-07T12:20:46.660Z,65.10
2022-10-07T12:25:51.433Z,63.00
2022-10-07T12:30:58.018Z,63.10
2022-10-07T12:36:27.697Z,62.10
2022-10-07T12:41:34.445Z,61.70
2022-10-07T12:46:49.490Z,61.00
2022-10-07T12:51:55.138Z,61.70
2022-10-07T12:56:58.682Z,61.20
2022-10-07T13:02:27.098Z,60.80
2022-10-07T13:08:03.348Z,58.90
2022-10-07T13:13:09.286Z,60.10
2022-10-07T13:18:20.311Z,59.20
2022-10-07T13:23:27.497Z,58.10
2022-10-07T13:28:39.283Z,58.20
2022-10-07T13:33:44.587Z,58.70
2022-10-07T13:38:49.203Z,58.70
2022-10-07T13:43:55.985Z,58.00
2022-10-07T13:49:01.498Z,57.80
2022-10-07T13:54:07.908Z,57.30
2022-10-07T13:59:18.422Z,56.20
2022-10-07T14:04:26.155Z,56.10
2022-10-07T14:09:45.105Z,56.80
2022-10-07T14:14:51.668Z,56.90
2022-10-07T14:19:59.561Z,56.40
2022-10-07T14:25:05.398Z,56.50
2022-10-07T14:31:01.477Z,56.00
2022-10-07T14:36:17.449Z,55.20
